sensor_id;sensor_type;location;lat;lon;timestamp;P1;durP1;ratioP1;P2;durP2;ratioP2
15889;SDS011;8043;49.388;12.128;2024-03-08T00:01:51;17.20;;;4.92;;
15889;SDS011;8043;49.388;12.128;2024-03-08T00:06:57;17.02;;;7.72;;
15889;SDS011;8043;49.388;12.128;2024-03-08T00:11:59;13.03;;;6.92;;
15889;SDS011;8043;49.388;12.128;2024-03-08T00:17:01;35.45;;;6.50;;
15889;SDS011;8043;49.388;12.128;2024-03-08T00:22:04;17.92;;;6.55;;
15889;SDS011;8043;49.388;12.128;2024-03-08T00:27:07;8.50;;;5.15;;
15889;SDS011;8043;49.388;12.128;2024-03-08T00:32:11;14.45;;;7.50;;
15889;SDS011;8043;49.388;12.128;2024-03-08T00:37:14;14.90;;;6.25;;
15889;SDS011;8043;49.388;12.128;2024-03-08T00:42:16;19.87;;;9.23;;
15889;SDS011;8043;49.388;12.128;2024-03-08T00:47:20;8.38;;;5.55;;
15889;SDS011;8043;49.388;12.128;2024-03-08T00:52:23;14.05;;;9.18;;
15889;SDS011;8043;49.388;12.128;2024-03-08T00:57:25;8.45;;;5.17;;
15889;SDS011;8043;49.388;12.128;2024-03-08T01:02:28;8.85;;;6.45;;
15889;SDS011;8043;49.388;12.128;2024-03-08T01:12:32;16.20;;;6.60;;
15889;SDS011;8043;49.388;12.128;2024-03-08T01:17:35;12.15;;;6.83;;
15889;SDS011;8043;49.388;12.128;2024-03-08T01:22:40;10.35;;;4.97;;
15889;SDS011;8043;49.388;12.128;2024-03-08T01:27:42;16.05;;;7.25;;
15889;SDS011;8043;49.388;12.128;2024-03-08T01:32:45;8.45;;;5.40;;
15889;SDS011;8043;49.388;12.128;2024-03-08T01:37:47;21.62;;;8.55;;
15889;SDS011;8043;49.388;12.128;2024-03-08T01:42:50;14.33;;;6.85;;
15889;SDS011;8043;49.388;12.128;2024-03-08T01:47:55;22.00;;;8.33;;
15889;SDS011;8043;49.388;12.128;2024-03-08T01:52:57;15.63;;;7.22;;
15889;SDS011;8043;49.388;12.128;2024-03-08T01:58:00;11.00;;;6.65;;
15889;SDS011;8043;49.388;12.128;2024-03-08T02:03:05;13.60;;;7.40;;
15889;SDS011;8043;49.388;12.128;2024-03-08T02:08:07;10.75;;;6.00;;
15889;SDS011;8043;49.388;12.128;2024-03-08T02:13:12;16.30;;;7.17;;
15889;SDS011;8043;49.388;12.128;2024-03-08T02:18:14;13.40;;;5.00;;
15889;SDS011;8043;49.388;12.128;2024-03-08T02:23:22;12.43;;;5.62;;
15889;SDS011;8043;49.388;12.128;2024-03-08T02:28:21;20.27;;;7.83;;
15889;SDS011;8043;49.388;12.128;2024-03-08T02:33:26;10.43;;;5.92;;
15889;SDS011;8043;49.388;12.128;2024-03-08T02:38:29;14.15;;;8.28;;
15889;SDS011;8043;49.388;12.128;2024-03-08T02:43:31;12.43;;;6.97;;
15889;SDS011;8043;49.388;12.128;2024-03-08T02:48:34;11.22;;;5.65;;
15889;SDS011;8043;49.388;12.128;2024-03-08T02:58:39;21.45;;;8.15;;
15889;SDS011;8043;49.388;12.128;2024-03-08T03:03:43;14.33;;;6.87;;
15889;SDS011;8043;49.388;12.128;2024-03-08T03:08:47;23.75;;;7.10;;
15889;SDS011;8043;49.388;12.128;2024-03-08T03:13:49;10.35;;;6.47;;
15889;SDS011;8043;49.388;12.128;2024-03-08T03:18:51;12.45;;;7.22;;
15889;SDS011;8043;49.388;12.128;2024-03-08T03:23:54;14.60;;;7.70;;
15889;SDS011;8043;49.388;12.128;2024-03-08T03:28:57;12.60;;;7.03;;
15889;SDS011;8043;49.388;12.128;2024-03-08T03:34:01;11.70;;;8.90;;
15889;SDS011;8043;49.388;12.128;2024-03-08T03:39:04;14.75;;;6.67;;
15889;SDS011;8043;49.388;12.128;2024-03-08T03:44:08;12.55;;;7.22;;
15889;SDS011;8043;49.388;12.128;2024-03-08T03:49:10;15.28;;;8.05;;
15889;SDS011;8043;49.388;12.128;2024-03-08T03:59:14;17.80;;;7.95;;
15889;SDS011;8043;49.388;12.128;2024-03-08T04:04:17;33.30;;;10.08;;
15889;SDS011;8043;49.388;12.128;2024-03-08T04:09:19;24.12;;;9.70;;
15889;SDS011;8043;49.388;12.128;2024-03-08T04:14:23;29.52;;;11.33;;
15889;SDS011;8043;49.388;12.128;2024-03-08T04:19:26;23.47;;;10.13;;
15889;SDS011;8043;49.388;12.128;2024-03-08T04:24:28;36.23;;;12.95;;
15889;SDS011;8043;49.388;12.128;2024-03-08T04:34:35;21.12;;;9.03;;
15889;SDS011;8043;49.388;12.128;2024-03-08T04:39:37;15.35;;;7.65;;
15889;SDS011;8043;49.388;12.128;2024-03-08T04:44:40;13.30;;;7.22;;
15889;SDS011;8043;49.388;12.128;2024-03-08T04:49:42;10.63;;;7.25;;
15889;SDS011;8043;49.388;12.128;2024-03-08T04:54:45;17.35;;;8.03;;
15889;SDS011;8043;49.388;12.128;2024-03-08T04:59:47;18.48;;;7.62;;
15889;SDS011;8043;49.388;12.128;2024-03-08T05:04:49;14.43;;;9.00;;
15889;SDS011;8043;49.388;12.128;2024-03-08T05:14:53;24.70;;;6.87;;
15889;SDS011;8043;49.388;12.128;2024-03-08T05:19:56;16.02;;;8.48;;
15889;SDS011;8043;49.388;12.128;2024-03-08T05:24:58;11.57;;;6.47;;
15889;SDS011;8043;49.388;12.128;2024-03-08T05:35:05;23.07;;;9.53;;
15889;SDS011;8043;49.388;12.128;2024-03-08T05:40:08;15.85;;;8.55;;
15889;SDS011;8043;49.388;12.128;2024-03-08T05:45:10;20.50;;;9.55;;
15889;SDS011;8043;49.388;12.128;2024-03-08T05:50:15;15.28;;;9.48;;
15889;SDS011;8043;49.388;12.128;2024-03-08T05:55:18;15.93;;;8.93;;
15889;SDS011;8043;49.388;12.128;2024-03-08T06:00:21;14.83;;;7.08;;
15889;SDS011;8043;49.388;12.128;2024-03-08T06:05:24;22.35;;;9.00;;
15889;SDS011;8043;49.388;12.128;2024-03-08T06:10:27;24.45;;;9.63;;
15889;SDS011;8043;49.388;12.128;2024-03-08T06:15:29;23.70;;;9.83;;
15889;SDS011;8043;49.388;12.128;2024-03-08T06:20:32;16.27;;;9.58;;
15889;SDS011;8043;49.388;12.128;2024-03-08T06:25:34;16.95;;;7.80;;
15889;SDS011;8043;49.388;12.128;2024-03-08T06:30:36;24.43;;;12.35;;
15889;SDS011;8043;49.388;12.128;2024-03-08T06:35:39;19.17;;;10.68;;
15889;SDS011;8043;49.388;12.128;2024-03-08T06:40:42;21.23;;;9.13;;
15889;SDS011;8043;49.388;12.128;2024-03-08T06:45:44;18.02;;;10.40;;
15889;SDS011;8043;49.388;12.128;2024-03-08T06:50:49;18.62;;;9.45;;
15889;SDS011;8043;49.388;12.128;2024-03-08T07:00:53;19.32;;;8.50;;
15889;SDS011;8043;49.388;12.128;2024-03-08T07:05:57;20.65;;;8.75;;
15889;SDS011;8043;49.388;12.128;2024-03-08T07:10:59;11.75;;;7.55;;
15889;SDS011;8043;49.388;12.128;2024-03-08T07:16:02;16.27;;;7.58;;
15889;SDS011;8043;49.388;12.128;2024-03-08T07:21:05;16.05;;;9.10;;
15889;SDS011;8043;49.388;12.128;2024-03-08T07:26:08;24.75;;;9.73;;
15889;SDS011;8043;49.388;12.128;2024-03-08T07:31:10;22.60;;;10.08;;
15889;SDS011;8043;49.388;12.128;2024-03-08T07:36:14;17.82;;;9.93;;
15889;SDS011;8043;49.388;12.128;2024-03-08T07:41:17;25.48;;;9.75;;
15889;SDS011;8043;49.388;12.128;2024-03-08T07:46:20;22.52;;;8.25;;
15889;SDS011;8043;49.388;12.128;2024-03-08T07:51:23;26.75;;;9.88;;
15889;SDS011;8043;49.388;12.128;2024-03-08T07:56:26;10.68;;;5.17;;
15889;SDS011;8043;49.388;12.128;2024-03-08T08:01:28;24.82;;;9.55;;
15889;SDS011;8043;49.388;12.128;2024-03-08T08:06:31;26.87;;;10.93;;
15889;SDS011;8043;49.388;12.128;2024-03-08T08:11:36;25.32;;;10.38;;
15889;SDS011;8043;49.388;12.128;2024-03-08T08:16:39;21.60;;;9.65;;
15889;SDS011;8043;49.388;12.128;2024-03-08T08:21:43;18.48;;;8.33;;
15889;SDS011;8043;49.388;12.128;2024-03-08T08:26:46;33.33;;;9.18;;
15889;SDS011;8043;49.388;12.128;2024-03-08T08:31:49;21.33;;;10.28;;
15889;SDS011;8043;49.388;12.128;2024-03-08T08:41:53;35.38;;;9.33;;
15889;SDS011;8043;49.388;12.128;2024-03-08T08:46:56;19.60;;;11.18;;
15889;SDS011;8043;49.388;12.128;2024-03-08T08:51:59;24.77;;;9.78;;
15889;SDS011;8043;49.388;12.128;2024-03-08T09:02:09;18.05;;;8.95;;
15889;SDS011;8043;49.388;12.128;2024-03-08T09:07:09;24.90;;;10.38;;
15889;SDS011;8043;49.388;12.128;2024-03-08T09:12:14;23.02;;;8.08;;
15889;SDS011;8043;49.388;12.128;2024-03-08T09:17:16;23.07;;;8.78;;
15889;SDS011;8043;49.388;12.128;2024-03-08T09:22:21;30.88;;;10.50;;
15889;SDS011;8043;49.388;12.128;2024-03-08T09:32:25;19.45;;;9.13;;
15889;SDS011;8043;49.388;12.128;2024-03-08T09:37:27;25.70;;;10.03;;
15889;SDS011;8043;49.388;12.128;2024-03-08T09:42:30;19.32;;;8.43;;
15889;SDS011;8043;49.388;12.128;2024-03-08T09:47:32;19.67;;;8.83;;
15889;SDS011;8043;49.388;12.128;2024-03-08T09:52:37;25.27;;;8.93;;
15889;SDS011;8043;49.388;12.128;2024-03-08T09:57:44;24.05;;;9.45;;
15889;SDS011;8043;49.388;12.128;2024-03-08T10:02:48;20.65;;;7.97;;
15889;SDS011;8043;49.388;12.128;2024-03-08T10:07:55;18.50;;;7.60;;
15889;SDS011;8043;49.388;12.128;2024-03-08T10:12:57;19.27;;;8.28;;
15889;SDS011;8043;49.388;12.128;2024-03-08T10:18:00;16.37;;;7.28;;
15889;SDS011;8043;49.388;12.128;2024-03-08T10:23:05;19.02;;;8.50;;
15889;SDS011;8043;49.388;12.128;2024-03-08T10:28:10;23.12;;;8.18;;
15889;SDS011;8043;49.388;12.128;2024-03-08T10:33:13;23.75;;;7.55;;
15889;SDS011;8043;49.388;12.128;2024-03-08T10:38:15;21.62;;;7.55;;
15889;SDS011;8043;49.388;12.128;2024-03-08T10:43:22;24.15;;;8.28;;
15889;SDS011;8043;49.388;12.128;2024-03-08T10:48:30;21.77;;;8.35;;
15889;SDS011;8043;49.388;12.128;2024-03-08T10:53:34;21.30;;;8.48;;
15889;SDS011;8043;49.388;12.128;2024-03-08T10:58:37;19.35;;;8.23;;
15889;SDS011;8043;49.388;12.128;2024-03-08T11:08:49;19.48;;;7.17;;
15889;SDS011;8043;49.388;12.128;2024-03-08T11:13:51;22.40;;;7.90;;
15889;SDS011;8043;49.388;12.128;2024-03-08T11:19:01;16.52;;;7.85;;
15889;SDS011;8043;49.388;12.128;2024-03-08T11:24:12;14.73;;;6.22;;
15889;SDS011;8043;49.388;12.128;2024-03-08T11:34:45;13.85;;;6.10;;
15889;SDS011;8043;49.388;12.128;2024-03-08T11:39:48;20.68;;;7.20;;
15889;SDS011;8043;49.388;12.128;2024-03-08T11:44:51;16.97;;;7.08;;
15889;SDS011;8043;49.388;12.128;2024-03-08T11:49:54;12.73;;;5.87;;
15889;SDS011;8043;49.388;12.128;2024-03-08T11:54:57;14.40;;;6.65;;
15889;SDS011;8043;49.388;12.128;2024-03-08T11:59:59;21.75;;;7.30;;
15889;SDS011;8043;49.388;12.128;2024-03-08T12:05:04;14.43;;;7.20;;
15889;SDS011;8043;49.388;12.128;2024-03-08T12:15:23;17.20;;;6.85;;
15889;SDS011;8043;49.388;12.128;2024-03-08T12:20:26;15.03;;;5.77;;
15889;SDS011;8043;49.388;12.128;2024-03-08T12:25:30;13.48;;;6.37;;
15889;SDS011;8043;49.388;12.128;2024-03-08T12:30:36;13.83;;;6.17;;
15889;SDS011;8043;49.388;12.128;2024-03-08T12:35:53;18.50;;;6.83;;
15889;SDS011;8043;49.388;12.128;2024-03-08T12:41:02;14.13;;;7.00;;
15889;SDS011;8043;49.388;12.128;2024-03-08T12:46:01;13.70;;;5.97;;
15889;SDS011;8043;49.388;12.128;2024-03-08T12:51:05;12.80;;;7.00;;
15889;SDS011;8043;49.388;12.128;2024-03-08T12:56:09;16.02;;;6.58;;
15889;SDS011;8043;49.388;12.128;2024-03-08T13:06:15;15.03;;;6.28;;
15889;SDS011;8043;49.388;12.128;2024-03-08T13:11:18;11.60;;;5.92;;
15889;SDS011;8043;49.388;12.128;2024-03-08T13:16:21;23.05;;;6.50;;
15889;SDS011;8043;49.388;12.128;2024-03-08T13:21:23;14.98;;;7.28;;
15889;SDS011;8043;49.388;12.128;2024-03-08T13:26:26;15.15;;;6.35;;
15889;SDS011;8043;49.388;12.128;2024-03-08T13:31:30;10.00;;;5.85;;
15889;SDS011;8043;49.388;12.128;2024-03-08T13:36:34;11.08;;;5.60;;
15889;SDS011;8043;49.388;12.128;2024-03-08T13:41:38;18.07;;;6.50;;
15889;SDS011;8043;49.388;12.128;2024-03-08T13:46:40;8.65;;;4.62;;
15889;SDS011;8043;49.388;12.128;2024-03-08T13:56:45;13.75;;;5.70;;
15889;SDS011;8043;49.388;12.128;2024-03-08T14:01:50;11.15;;;5.80;;
15889;SDS011;8043;49.388;12.128;2024-03-08T14:06:52;14.40;;;5.45;;
15889;SDS011;8043;49.388;12.128;2024-03-08T14:11:59;16.17;;;6.67;;
15889;SDS011;8043;49.388;12.128;2024-03-08T14:17:07;12.05;;;5.97;;
15889;SDS011;8043;49.388;12.128;2024-03-08T14:22:11;15.75;;;5.92;;
15889;SDS011;8043;49.388;12.128;2024-03-08T14:27:15;12.98;;;5.85;;
15889;SDS011;8043;49.388;12.128;2024-03-08T14:32:19;17.93;;;5.63;;
15889;SDS011;8043;49.388;12.128;2024-03-08T14:37:23;13.60;;;6.05;;
15889;SDS011;8043;49.388;12.128;2024-03-08T14:42:27;13.55;;;5.60;;
15889;SDS011;8043;49.388;12.128;2024-03-08T14:47:30;16.35;;;6.12;;
15889;SDS011;8043;49.388;12.128;2024-03-08T14:52:32;13.03;;;5.62;;
15889;SDS011;8043;49.388;12.128;2024-03-08T14:57:36;11.45;;;5.37;;
15889;SDS011;8043;49.388;12.128;2024-03-08T15:02:40;12.13;;;5.63;;
15889;SDS011;8043;49.388;12.128;2024-03-08T15:07:43;11.57;;;5.10;;
15889;SDS011;8043;49.388;12.128;2024-03-08T15:12:46;12.10;;;5.58;;
15889;SDS011;8043;49.388;12.128;2024-03-08T15:17:49;11.95;;;5.75;;
15889;SDS011;8043;49.388;12.128;2024-03-08T15:22:52;19.20;;;6.57;;
15889;SDS011;8043;49.388;12.128;2024-03-08T15:27:55;15.68;;;6.78;;
15889;SDS011;8043;49.388;12.128;2024-03-08T15:32:59;23.57;;;6.95;;
15889;SDS011;8043;49.388;12.128;2024-03-08T15:38:03;17.65;;;6.45;;
15889;SDS011;8043;49.388;12.128;2024-03-08T15:43:06;14.85;;;6.92;;
15889;SDS011;8043;49.388;12.128;2024-03-08T15:48:09;18.10;;;7.55;;
15889;SDS011;8043;49.388;12.128;2024-03-08T15:58:13;16.97;;;6.70;;
15889;SDS011;8043;49.388;12.128;2024-03-08T16:03:15;21.68;;;6.25;;
15889;SDS011;8043;49.388;12.128;2024-03-08T16:08:18;14.93;;;7.15;;
15889;SDS011;8043;49.388;12.128;2024-03-08T16:13:25;15.20;;;6.63;;
15889;SDS011;8043;49.388;12.128;2024-03-08T16:18:28;16.45;;;6.05;;
15889;SDS011;8043;49.388;12.128;2024-03-08T16:23:31;15.95;;;6.15;;
15889;SDS011;8043;49.388;12.128;2024-03-08T16:28:35;12.28;;;6.05;;
15889;SDS011;8043;49.388;12.128;2024-03-08T16:33:41;16.85;;;6.20;;
15889;SDS011;8043;49.388;12.128;2024-03-08T16:38:45;8.08;;;4.42;;
15889;SDS011;8043;49.388;12.128;2024-03-08T16:43:48;18.82;;;7.62;;
15889;SDS011;8043;49.388;12.128;2024-03-08T16:48:51;17.20;;;7.22;;
15889;SDS011;8043;49.388;12.128;2024-03-08T16:53:55;18.52;;;8.35;;
15889;SDS011;8043;49.388;12.128;2024-03-08T16:58:57;16.02;;;8.10;;
15889;SDS011;8043;49.388;12.128;2024-03-08T17:04:03;18.77;;;7.33;;
15889;SDS011;8043;49.388;12.128;2024-03-08T17:09:07;16.40;;;6.25;;
15889;SDS011;8043;49.388;12.128;2024-03-08T17:14:14;13.38;;;6.35;;
15889;SDS011;8043;49.388;12.128;2024-03-08T17:19:18;19.57;;;9.13;;
15889;SDS011;8043;49.388;12.128;2024-03-08T17:24:22;19.30;;;8.38;;
15889;SDS011;8043;49.388;12.128;2024-03-08T17:29:25;15.20;;;6.92;;
15889;SDS011;8043;49.388;12.128;2024-03-08T17:34:27;21.48;;;7.85;;
15889;SDS011;8043;49.388;12.128;2024-03-08T17:39:30;19.37;;;6.92;;
15889;SDS011;8043;49.388;12.128;2024-03-08T17:44:34;10.93;;;6.65;;
15889;SDS011;8043;49.388;12.128;2024-03-08T17:49:38;20.15;;;7.45;;
15889;SDS011;8043;49.388;12.128;2024-03-08T17:54:41;17.42;;;7.03;;
15889;SDS011;8043;49.388;12.128;2024-03-08T18:04:46;16.35;;;7.58;;
15889;SDS011;8043;49.388;12.128;2024-03-08T18:09:49;10.20;;;5.40;;
15889;SDS011;8043;49.388;12.128;2024-03-08T18:14:51;13.83;;;6.47;;
15889;SDS011;8043;49.388;12.128;2024-03-08T18:19:54;15.20;;;5.92;;
15889;SDS011;8043;49.388;12.128;2024-03-08T18:24:57;13.50;;;6.10;;
15889;SDS011;8043;49.388;12.128;2024-03-08T18:30:00;17.40;;;5.95;;
15889;SDS011;8043;49.388;12.128;2024-03-08T18:35:04;14.78;;;5.33;;
15889;SDS011;8043;49.388;12.128;2024-03-08T18:45:16;17.45;;;6.97;;
15889;SDS011;8043;49.388;12.128;2024-03-08T18:50:23;17.75;;;8.15;;
15889;SDS011;8043;49.388;12.128;2024-03-08T18:55:46;14.30;;;6.95;;
15889;SDS011;8043;49.388;12.128;2024-03-08T19:00:48;27.10;;;7.17;;
15889;SDS011;8043;49.388;12.128;2024-03-08T19:05:52;14.33;;;7.22;;
15889;SDS011;8043;49.388;12.128;2024-03-08T19:10:55;14.87;;;8.18;;
15889;SDS011;8043;49.388;12.128;2024-03-08T19:15:58;10.18;;;5.45;;
15889;SDS011;8043;49.388;12.128;2024-03-08T19:21:00;14.38;;;7.80;;
15889;SDS011;8043;49.388;12.128;2024-03-08T19:26:03;18.30;;;8.00;;
15889;SDS011;8043;49.388;12.128;2024-03-08T19:31:07;11.78;;;5.47;;
15889;SDS011;8043;49.388;12.128;2024-03-08T19:36:10;11.22;;;5.80;;
15889;SDS011;8043;49.388;12.128;2024-03-08T19:41:14;9.78;;;5.05;;
15889;SDS011;8043;49.388;12.128;2024-03-08T19:46:17;16.97;;;6.97;;
15889;SDS011;8043;49.388;12.128;2024-03-08T19:51:20;10.80;;;6.40;;
15889;SDS011;8043;49.388;12.128;2024-03-08T19:56:23;20.23;;;6.47;;
15889;SDS011;8043;49.388;12.128;2024-03-08T20:01:27;25.32;;;10.03;;
15889;SDS011;8043;49.388;12.128;2024-03-08T20:06:30;15.08;;;7.92;;
15889;SDS011;8043;49.388;12.128;2024-03-08T20:11:34;21.82;;;8.85;;
15889;SDS011;8043;49.388;12.128;2024-03-08T20:21:38;17.77;;;7.20;;
15889;SDS011;8043;49.388;12.128;2024-03-08T20:26:41;13.78;;;6.85;;
15889;SDS011;8043;49.388;12.128;2024-03-08T20:31:44;23.70;;;6.42;;
15889;SDS011;8043;49.388;12.128;2024-03-08T20:36:47;10.23;;;5.58;;
15889;SDS011;8043;49.388;12.128;2024-03-08T20:41:49;12.73;;;6.28;;
15889;SDS011;8043;49.388;12.128;2024-03-08T20:46:53;12.10;;;5.90;;
15889;SDS011;8043;49.388;12.128;2024-03-08T20:51:56;8.18;;;5.12;;
15889;SDS011;8043;49.388;12.128;2024-03-08T20:56:58;23.32;;;6.97;;
15889;SDS011;8043;49.388;12.128;2024-03-08T21:02:01;10.80;;;6.28;;
15889;SDS011;8043;49.388;12.128;2024-03-08T21:07:04;11.00;;;6.20;;
15889;SDS011;8043;49.388;12.128;2024-03-08T21:12:07;14.10;;;6.17;;
15889;SDS011;8043;49.388;12.128;2024-03-08T21:17:11;12.07;;;5.83;;
15889;SDS011;8043;49.388;12.128;2024-03-08T21:22:14;14.85;;;9.10;;
15889;SDS011;8043;49.388;12.128;2024-03-08T21:27:17;11.50;;;5.00;;
15889;SDS011;8043;49.388;12.128;2024-03-08T21:32:21;10.10;;;5.45;;
15889;SDS011;8043;49.388;12.128;2024-03-08T21:37:25;13.50;;;6.80;;
15889;SDS011;8043;49.388;12.128;2024-03-08T21:42:27;13.62;;;6.40;;
15889;SDS011;8043;49.388;12.128;2024-03-08T21:47:30;15.43;;;6.53;;
15889;SDS011;8043;49.388;12.128;2024-03-08T21:52:32;13.83;;;4.80;;
15889;SDS011;8043;49.388;12.128;2024-03-08T21:57:35;11.78;;;5.62;;
15889;SDS011;8043;49.388;12.128;2024-03-08T22:02:41;14.07;;;6.22;;
15889;SDS011;8043;49.388;12.128;2024-03-08T22:07:47;16.95;;;7.37;;
15889;SDS011;8043;49.388;12.128;2024-03-08T22:12:52;11.20;;;5.60;;
15889;SDS011;8043;49.388;12.128;2024-03-08T22:17:55;10.95;;;5.95;;
15889;SDS011;8043;49.388;12.128;2024-03-08T22:22:58;7.75;;;5.17;;
15889;SDS011;8043;49.388;12.128;2024-03-08T22:28:01;8.30;;;4.90;;
15889;SDS011;8043;49.388;12.128;2024-03-08T22:33:05;12.65;;;4.10;;
15889;SDS011;8043;49.388;12.128;2024-03-08T22:38:09;9.20;;;5.28;;
15889;SDS011;8043;49.388;12.128;2024-03-08T22:43:12;8.75;;;5.12;;
15889;SDS011;8043;49.388;12.128;2024-03-08T22:48:17;11.80;;;5.22;;
15889;SDS011;8043;49.388;12.128;2024-03-08T22:53:19;14.30;;;5.72;;
15889;SDS011;8043;49.388;12.128;2024-03-08T22:58:23;12.60;;;4.70;;
15889;SDS011;8043;49.388;12.128;2024-03-08T23:03:25;20.13;;;6.63;;
15889;SDS011;8043;49.388;12.128;2024-03-08T23:08:32;16.27;;;5.08;;
15889;SDS011;8043;49.388;12.128;2024-03-08T23:13:53;8.53;;;4.45;;
15889;SDS011;8043;49.388;12.128;2024-03-08T23:18:57;9.60;;;5.15;;
15889;SDS011;8043;49.388;12.128;2024-03-08T23:24:01;13.10;;;6.08;;
15889;SDS011;8043;49.388;12.128;2024-03-08T23:29:05;20.92;;;5.80;;
15889;SDS011;8043;49.388;12.128;2024-03-08T23:34:07;23.10;;;6.50;;
15889;SDS011;8043;49.388;12.128;2024-03-08T23:39:10;9.58;;;3.67;;
15889;SDS011;8043;49.388;12.128;2024-03-08T23:44:12;8.60;;;4.35;;
15889;SDS011;8043;49.388;12.128;2024-03-08T23:49:14;12.00;;;5.00;;
15889;SDS011;8043;49.388;12.128;2024-03-08T23:54:18;7.42;;;3.67;;
15889;SDS011;8043;49.388;12.128;2024-03-08T23:59:22;10.63;;;4.33;;
